Time;durP1;ratioP1;P1;durP2;ratioP2;P2;SDS_P1;SDS_P2;PMS_P1;PMS_P2;Temp;Humidity;BMP_temperature;BMP_pressure;BME280_temperature;BME280_humidity;BME280_pressure;Samples;Min_cycle;Max_cycle;Signal;HPM_P1;HPM_P2
2021/10/22 00:00:04;;;;;;;;;23.75;19.25;;;;;8.57;84.96;101655.97;4996734;28;45944;-59
2021/10/22 00:02:29;;;;;;;;;19.50;17.25;;;;;8.58;85.84;101662.88;4996842;28;45619;-59
2021/10/22 00:04:55;;;;;;;;;22.25;19.00;;;;;8.55;86.34;101665.50;4996701;28;45383;-59
2021/10/22 00:07:21;;;;;;;;;27.00;18.50;;;;;8.51;85.63;101656.88;4997180;28;45607;-59
2021/10/22 00:09:47;;;;;;;;;18.00;17.00;;;;;8.50;85.60;101659.47;4996740;28;45530;-59
2021/10/22 00:12:12;;;;;;;;;19.00;17.00;;;;;8.47;85.75;101665.53;4997035;28;45495;-59
2021/10/22 00:14:38;;;;;;;;;21.00;17.00;;;;;8.47;86.17;101662.94;4996679;28;45486;-59
2021/10/22 00:17:03;;;;;;;;;19.50;16.00;;;;;8.46;85.91;101665.53;4996853;28;45535;-59
2021/10/22 00:19:29;;;;;;;;;16.50;14.25;;;;;8.44;86.23;101662.09;4996547;28;45333;-59
2021/10/22 00:21:54;;;;;;;;;22.00;16.00;;;;;8.42;86.15;101669.03;4999449;28;45896;-59
2021/10/22 00:24:19;;;;;;;;;16.00;16.00;;;;;8.39;86.19;101656.06;5000215;28;45401;-59
2021/10/22 00:26:45;;;;;;;;;17.00;13.75;;;;;8.36;86.27;101658.66;5002448;28;46157;-59
2021/10/22 00:29:10;;;;;;;;;19.00;13.50;;;;;8.34;86.26;101666.44;5002397;28;45185;-59
2021/10/22 00:31:35;;;;;;;;;22.50;16.25;;;;;8.33;85.99;101669.00;5002645;28;45349;-59
2021/10/22 00:34:01;;;;;;;;;16.75;16.25;;;;;8.33;86.34;101672.44;4999568;28;45479;-59
2021/10/22 00:36:26;;;;;;;;;17.75;16.00;;;;;8.34;86.25;101668.16;5002184;28;45353;-59
2021/10/22 00:38:52;;;;;;;;;18.00;17.50;;;;;8.35;85.78;101670.75;5002157;28;45197;-59
2021/10/22 00:41:18;;;;;;;;;23.00;18.25;;;;;8.37;86.13;101669.00;5002531;28;45278;-59
2021/10/22 00:43:45;;;;;;;;;17.00;16.00;;;;;8.40;85.83;101660.38;5002232;28;45328;-59
2021/10/22 00:46:10;;;;;;;;;19.75;15.50;;;;;8.42;85.93;101656.06;5001950;28;45350;-59
2021/10/22 00:48:37;;;;;;;;;21.75;17.00;;;;;8.43;85.91;101668.16;5002086;28;45308;-59
2021/10/22 00:51:04;;;;;;;;;16.25;16.25;;;;;8.44;85.80;101670.72;5002464;28;45306;-59
2021/10/22 00:53:29;;;;;;;;;19.00;17.75;;;;;8.46;86.19;101673.31;5001900;28;45421;-59
2021/10/22 00:55:55;;;;;;;;;17.50;15.50;;;;;8.46;85.73;101666.41;5002030;28;45961;-59
2021/10/22 00:58:24;;;;;;;;;16.75;15.00;;;;;8.47;85.85;101656.91;5001861;28;45162;-59
2021/10/22 01:00:50;;;;;;;;;24.75;18.25;;;;;8.47;86.05;101664.66;5002077;28;45306;-59
2021/10/22 01:03:15;;;;;;;;;23.25;19.25;;;;;8.47;85.93;101662.09;5000430;28;45253;-59
2021/10/22 01:05:42;;;;;;;;;19.75;17.25;;;;;8.46;86.10;101662.94;5001813;28;46423;-59
2021/10/22 01:08:10;;;;;;;;;21.25;19.00;;;;;8.47;86.25;101675.03;5001702;28;45171;-59
2021/10/22 01:10:39;;;;;;;;;18.25;16.00;;;;;8.48;86.16;101669.84;5002253;28;45464;-59
2021/10/22 01:13:05;;;;;;;;;20.25;16.75;;;;;8.49;86.55;101673.28;5001904;28;45353;-58
2021/10/22 01:15:31;;;;;;;;;22.00;18.50;;;;;8.49;86.58;101679.34;5001772;28;46000;-59
2021/10/22 01:17:56;;;;;;;;;21.00;17.75;;;;;8.52;86.16;101676.72;5001430;28;45509;-59
2021/10/22 01:20:23;;;;;;;;;19.00;15.50;;;;;8.50;86.33;101678.47;5001821;28;45273;-59
2021/10/22 01:22:51;;;;;;;;;19.25;17.00;;;;;8.51;86.06;101677.59;5001073;28;45279;-59
2021/10/22 01:25:19;;;;;;;;;18.75;17.50;;;;;8.50;86.30;101680.19;4995140;28;46224;-59
2021/10/22 01:27:46;;;;;;;;;18.75;17.50;;;;;8.49;86.46;101686.25;5000761;28;45310;-59
2021/10/22 01:30:14;;;;;;;;;21.25;18.25;;;;;8.47;86.30;101681.06;5001650;28;45290;-59
2021/10/22 01:32:40;;;;;;;;;21.75;17.00;;;;;8.47;86.80;101682.81;5000321;28;45424;-59
2021/10/22 01:35:09;;;;;;;;;19.25;16.75;;;;;8.45;86.66;101685.41;4990811;28;47167;-59
2021/10/22 01:37:35;;;;;;;;;20.00;17.75;;;;;8.46;86.76;101681.09;5011169;28;45882;-59
2021/10/22 01:40:01;;;;;;;;;17.75;15.75;;;;;8.49;86.79;101684.53;5001427;28;45373;-59
2021/10/22 01:42:27;;;;;;;;;23.75;18.25;;;;;8.49;86.26;101686.25;5001607;28;45547;-59
2021/10/22 01:44:52;;;;;;;;;21.75;16.25;;;;;8.51;86.65;101689.69;5001152;28;46162;-58
2021/10/22 01:47:19;;;;;;;;;16.75;14.75;;;;;8.51;86.37;101692.28;5001526;28;45150;-59
2021/10/22 01:49:45;;;;;;;;;21.75;16.25;;;;;8.51;86.12;101692.28;5001227;28;45360;-58
2021/10/22 01:52:11;;;;;;;;;21.50;14.50;;;;;8.51;86.10;101694.88;5001532;28;45547;-59
2021/10/22 01:54:36;;;;;;;;;16.25;16.25;;;;;8.49;86.62;101687.09;5000532;28;45435;-59
2021/10/22 01:57:03;;;;;;;;;16.00;15.50;;;;;8.46;86.00;101691.44;5001535;28;45439;-59
2021/10/22 01:59:29;;;;;;;;;18.50;15.25;;;;;8.46;86.29;101694.03;5001047;28;45328;-59
2021/10/22 02:01:54;;;;;;;;;24.75;17.75;;;;;8.45;85.92;101692.31;4999631;28;45472;-59
2021/10/22 02:04:19;;;;;;;;;22.50;17.25;;;;;8.45;86.23;101697.50;5000763;28;46287;-59
2021/10/22 02:06:47;;;;;;;;;19.75;16.25;;;;;8.44;86.31;101693.19;5001020;28;45471;-59
2021/10/22 02:09:12;;;;;;;;;22.75;16.25;;;;;8.40;86.45;101689.72;5000997;28;45286;-59
2021/10/22 02:11:38;;;;;;;;;19.75;16.00;;;;;8.39;86.53;101688.00;5001010;28;45431;-59
2021/10/22 02:14:03;;;;;;;;;16.50;13.75;;;;;8.40;86.70;101691.44;5000842;28;45164;-59
2021/10/22 02:16:29;;;;;;;;;17.75;15.75;;;;;8.38;86.52;101683.69;5000650;28;45313;-59
2021/10/22 02:18:54;;;;;;;;;17.00;16.00;;;;;8.38;86.38;101681.09;5000710;28;45326;-59
2021/10/22 02:21:20;;;;;;;;;14.25;13.00;;;;;8.38;86.44;101694.03;5000915;28;45298;-58
2021/10/22 02:23:45;;;;;;;;;23.00;13.00;;;;;8.37;86.63;101688.88;5000136;28;45566;-59
2021/10/22 02:26:10;;;;;;;;;18.75;14.75;;;;;8.37;86.39;101688.88;5000878;28;45179;-59
2021/10/22 02:28:36;;;;;;;;;18.50;16.25;;;;;8.36;86.85;101689.75;5001001;28;45210;-59
2021/10/22 02:31:01;;;;;;;;;17.00;17.00;;;;;8.35;86.99;101685.44;5000630;28;45701;-59
2021/10/22 02:33:28;;;;;;;;;22.50;19.75;;;;;8.34;86.72;101679.38;5000575;28;46832;-59
2021/10/22 02:35:53;;;;;;;;;21.75;17.25;;;;;8.31;86.89;101678.50;5000394;28;45934;-59
2021/10/22 02:38:18;;;;;;;;;19.25;16.50;;;;;8.30;86.86;101677.66;4997654;28;45378;-59
2021/10/22 02:40:44;;;;;;;;;16.50;12.75;;;;;8.30;87.00;101674.19;5000610;28;45476;-59
2021/10/22 02:43:09;;;;;;;;;15.25;14.00;;;;;8.30;86.92;101676.78;4982292;28;46020;-59
2021/10/22 02:45:34;;;;;;;;;20.50;15.00;;;;;8.28;87.30;101679.38;5000428;28;45602;-59
2021/10/22 02:48:00;;;;;;;;;17.00;15.75;;;;;8.28;87.43;101691.47;5000534;28;45325;-59
2021/10/22 02:50:26;;;;;;;;;20.75;19.00;;;;;8.26;87.09;101696.66;5000328;28;45425;-59
2021/10/22 02:52:52;;;;;;;;;19.50;19.50;;;;;8.22;87.59;101690.63;5000137;28;45371;-59
2021/10/22 02:55:17;;;;;;;;;19.25;17.50;;;;;8.18;88.03;101695.78;5000443;28;45517;-59
2021/10/22 02:57:43;;;;;;;;;20.50;19.00;;;;;8.14;88.11;101696.66;5000279;28;45287;-59
2021/10/22 03:00:10;;;;;;;;;18.75;17.25;;;;;8.09;87.80;101688.91;5000237;28;45479;-59
2021/10/22 03:02:35;;;;;;;;;17.50;16.00;;;;;8.06;88.09;101699.28;4998799;28;45248;-59
2021/10/22 03:05:00;;;;;;;;;17.75;15.50;;;;;8.02;88.06;101696.72;4999811;28;45187;-59
2021/10/22 03:07:26;;;;;;;;;16.00;16.00;;;;;8.01;88.41;101695.84;4999341;28;45342;-58
2021/10/22 03:09:51;;;;;;;;;15.00;15.00;;;;;7.99;88.27;101700.13;4996653;28;45514;-58
2021/10/22 03:12:16;;;;;;;;;25.25;17.00;;;;;7.94;88.12;101689.81;4999406;28;46122;-58
2021/10/22 03:14:42;;;;;;;;;21.75;19.50;;;;;7.94;88.03;101699.28;4996350;28;45353;-58
2021/10/22 03:17:07;;;;;;;;;20.25;18.50;;;;;7.93;88.24;101693.25;4996704;28;45388;-58
2021/10/22 03:19:33;;;;;;;;;22.75;19.25;;;;;7.91;88.15;101692.41;4993701;28;45354;-58
2021/10/22 03:21:59;;;;;;;;;22.25;19.25;;;;;7.91;88.55;101694.13;4996334;28;46285;-58
2021/10/22 03:24:24;;;;;;;;;29.00;16.75;;;;;7.89;88.13;101699.31;4992366;28;45323;-59
2021/10/22 03:26:50;;;;;;;;;24.50;22.00;;;;;7.86;88.37;101707.06;4996416;28;45370;-59
2021/10/22 03:29:16;;;;;;;;;18.25;16.00;;;;;7.81;89.17;101705.38;4994259;28;45816;-58
2021/10/22 03:31:42;;;;;;;;;18.25;16.00;;;;;7.74;89.77;101701.03;4999657;28;45289;-58
2021/10/22 03:34:08;;;;;;;;;20.25;15.75;;;;;7.62;89.68;101686.41;4999395;28;45291;-58
2021/10/22 03:36:37;;;;;;;;;17.25;15.75;;;;;7.66;89.54;101702.78;4999965;28;45306;-58
2021/10/22 03:39:03;;;;;;;;;22.25;18.25;;;;;7.66;89.13;101698.47;4999229;28;45414;-58
2021/10/22 03:41:29;;;;;;;;;18.75;15.50;;;;;7.67;89.44;101696.72;4997023;28;46030;-58
2021/10/22 03:43:54;;;;;;;;;20.75;17.00;;;;;7.69;89.26;101702.78;4999357;28;45329;-58
2021/10/22 03:46:20;;;;;;;;;15.50;15.25;;;;;7.68;89.42;101707.09;4999465;28;45388;-57
2021/10/22 03:48:45;;;;;;;;;18.25;18.00;;;;;7.68;89.37;101703.63;4999372;28;45315;-57
2021/10/22 03:51:12;;;;;;;;;19.75;16.00;;;;;7.66;89.37;101698.47;4994753;28;45317;-59
2021/10/22 03:53:37;;;;;;;;;18.00;17.25;;;;;7.64;89.29;101695.00;4999213;28;45333;-56
2021/10/22 03:56:04;;;;;;;;;21.25;17.00;;;;;7.69;89.00;101707.94;5001161;28;45239;-57
2021/10/22 03:58:29;;;;;;;;;14.25;10.25;;;;;7.70;88.99;101697.59;5002974;28;45602;-57
2021/10/22 04:00:54;;;;;;;;;20.00;15.75;;;;;7.73;89.19;101704.47;5002650;28;47004;-57
2021/10/22 04:03:20;;;;;;;;;15.50;12.75;;;;;7.74;89.30;101695.84;5001353;28;45299;-56
2021/10/22 04:05:45;;;;;;;;;16.50;14.50;;;;;7.74;89.17;101707.06;5002737;28;45298;-56
2021/10/22 04:08:11;;;;;;;;;20.00;16.00;;;;;7.75;88.97;101702.75;5002580;28;45235;-56
2021/10/22 04:10:36;;;;;;;;;20.00;16.25;;;;;7.76;88.96;101704.47;5002588;28;46848;-56
2021/10/22 04:13:02;;;;;;;;;17.00;13.75;;;;;7.76;89.02;101702.75;5002655;28;45302;-56
2021/10/22 04:15:28;;;;;;;;;14.50;13.25;;;;;7.77;88.90;101708.78;4981835;28;45367;-57
2021/10/22 04:17:53;;;;;;;;;15.75;13.50;;;;;7.78;88.55;101703.63;5000005;28;45410;-58
2021/10/22 04:20:19;;;;;;;;;16.25;14.00;;;;;7.78;88.40;101701.03;5002614;28;45406;-56
2021/10/22 04:22:44;;;;;;;;;11.00;10.75;;;;;7.80;88.50;101713.97;5001696;28;45226;-56
2021/10/22 04:25:10;;;;;;;;;14.75;14.00;;;;;7.79;88.50;101707.91;5002178;28;45447;-57
2021/10/22 04:27:35;;;;;;;;;15.25;11.25;;;;;7.81;88.38;101705.38;5002602;28;45346;-56
2021/10/22 04:30:06;;;;;;;;;19.00;12.50;;;;;7.82;88.35;101707.09;5002440;28;46087;-56
2021/10/22 04:32:31;;;;;;;;;14.00;13.25;;;;;7.83;88.24;101711.41;5001027;28;45292;-57
2021/10/22 04:34:57;;;;;;;;;14.00;12.00;;;;;7.82;88.21;101714.84;5002381;28;45246;-57
2021/10/22 04:37:27;;;;;;;;;15.00;11.50;;;;;7.82;88.08;101722.63;5010669;28;45171;-57
2021/10/22 04:42:40;;;;;;;;;14.25;11.00;;;;;7.75;88.33;101729.50;5001375;28;45378;-57
2021/10/22 04:45:08;;;;;;;;;14.75;12.50;;;;;7.74;88.19;101727.78;4999367;28;45246;-58
2021/10/22 04:47:34;;;;;;;;;14.00;12.50;;;;;7.75;88.07;101729.50;4999524;28;45573;-58
2021/10/22 04:50:01;;;;;;;;;15.50;11.00;;;;;7.76;88.42;101738.97;5001086;28;45465;-59
2021/10/22 04:52:26;;;;;;;;;15.00;11.25;;;;;7.74;88.52;101738.13;4979227;28;45781;-58
2021/10/22 04:54:51;;;;;;;;;20.50;15.75;;;;;7.73;88.56;101735.53;5001059;28;45333;-58
2021/10/22 04:57:17;;;;;;;;;21.00;19.25;;;;;7.70;88.38;101744.16;5000603;28;45285;-58
2021/10/22 04:59:42;;;;;;;;;21.50;17.00;;;;;7.67;88.64;101744.16;4999854;28;45329;-58
2021/10/22 05:02:08;;;;;;;;;14.25;14.00;;;;;7.67;88.92;101748.47;5000501;28;45243;-58
2021/10/22 05:04:33;;;;;;;;;17.75;14.50;;;;;7.66;88.84;101752.78;5001558;28;45284;-58
2021/10/22 05:06:58;;;;;;;;;15.25;14.25;;;;;7.65;88.76;101758.81;4983857;28;45287;-58
2021/10/22 05:09:24;;;;;;;;;15.50;14.50;;;;;7.62;88.49;101753.66;5000742;28;46098;-57
2021/10/22 05:11:49;;;;;;;;;12.75;10.00;;;;;7.58;88.83;101755.34;5001902;28;45213;-56
2021/10/22 05:14:14;;;;;;;;;16.50;14.00;;;;;7.56;89.18;101751.91;5001824;28;45306;-57
2021/10/22 05:16:40;;;;;;;;;20.50;13.50;;;;;7.52;88.83;101760.53;5001663;28;45468;-57
2021/10/22 05:19:05;;;;;;;;;16.50;16.00;;;;;7.49;88.96;101751.91;5001229;28;46269;-57
2021/10/22 05:21:30;;;;;;;;;16.00;13.75;;;;;7.46;89.03;101752.75;5001927;28;45168;-57
2021/10/22 05:23:56;;;;;;;;;17.00;15.50;;;;;7.44;89.13;101754.50;5000673;28;45206;-57
2021/10/22 05:26:21;;;;;;;;;18.50;15.50;;;;;7.43;88.97;101752.75;5001725;28;45442;-58
2021/10/22 05:28:46;;;;;;;;;19.25;13.50;;;;;7.44;89.39;101746.72;5001184;28;46142;-57
2021/10/22 05:31:12;;;;;;;;;16.25;15.00;;;;;7.44;89.22;101751.03;5001322;28;45322;-58
2021/10/22 05:33:37;;;;;;;;;24.75;19.50;;;;;7.41;89.31;101746.72;5001178;28;45311;-58
2021/10/22 05:36:03;;;;;;;;;25.50;23.00;;;;;7.42;89.29;101747.59;5001463;28;45406;-59
2021/10/22 05:38:28;;;;;;;;;32.50;24.25;;;;;7.41;89.54;101745.84;5000594;28;45489;-57
2021/10/22 05:40:54;;;;;;;;;20.25;16.75;;;;;7.38;89.31;101749.28;5001536;28;45376;-62
2021/10/22 05:43:19;;;;;;;;;20.25;18.75;;;;;7.42;89.53;101757.94;5001007;28;45303;-58
2021/10/22 05:45:44;;;;;;;;;22.00;20.00;;;;;7.37;90.05;101746.69;4998962;28;45299;-58
2021/10/22 05:48:10;;;;;;;;;19.75;19.75;;;;;7.43;89.61;101757.94;5000008;28;46394;-58
2021/10/22 05:50:39;;;;;;;;;16.25;15.00;;;;;7.43;89.60;101754.50;5001002;28;45277;-58
2021/10/22 05:53:04;;;;;;;;;16.25;14.75;;;;;7.38;89.53;101751.88;5000875;28;45481;-58
2021/10/22 05:55:30;;;;;;;;;25.50;18.00;;;;;7.37;89.82;101754.44;5001008;28;45325;-58
2021/10/22 05:57:56;;;;;;;;;21.75;15.25;;;;;7.36;89.32;101753.59;5000313;28;46124;-58
2021/10/22 06:00:21;;;;;;;;;25.00;22.25;;;;;7.34;89.79;101773.41;5000826;28;46445;-56
2021/10/22 06:02:50;;;;;;;;;19.50;18.00;;;;;7.32;89.37;101770.84;4999264;28;45259;-58
2021/10/22 06:05:16;;;;;;;;;15.75;15.75;;;;;7.33;89.12;101771.69;5000527;28;45350;-60
2021/10/22 06:07:41;;;;;;;;;20.50;15.00;;;;;7.37;89.00;101778.59;5000402;28;46539;-59
2021/10/22 06:10:07;;;;;;;;;25.00;19.75;;;;;7.39;89.10;101782.03;5001085;28;45313;-58
2021/10/22 06:12:32;;;;;;;;;16.50;15.25;;;;;7.39;88.98;101776.00;5000419;28;45289;-57
2021/10/22 06:14:58;;;;;;;;;15.75;14.00;;;;;7.36;88.71;101779.44;5000566;28;45233;-59
2021/10/22 06:17:23;;;;;;;;;16.00;14.00;;;;;7.33;88.69;101776.88;5000580;28;46033;-58
2021/10/22 06:19:51;;;;;;;;;12.25;11.00;;;;;7.33;88.78;101772.56;4999384;28;45421;-58
2021/10/22 06:24:42;;;;;;;;;16.75;15.00;;;;;7.42;88.45;101773.47;4999300;28;45334;-58
2021/10/22 06:27:09;;;;;;;;;21.75;18.25;;;;;7.44;88.47;101777.75;5000170;28;45235;-58
2021/10/22 06:29:34;;;;;;;;;22.75;21.25;;;;;7.43;88.28;101781.22;4999867;28;45337;-58
2021/10/22 06:32:00;;;;;;;;;27.00;21.25;;;;;7.47;88.34;101779.50;5000113;28;45472;-58
2021/10/22 06:34:27;;;;;;;;;19.25;17.25;;;;;7.48;88.15;101783.81;4998239;28;45635;-58
2021/10/22 06:36:52;;;;;;;;;25.00;19.50;;;;;7.50;88.28;101793.28;4998409;28;47210;-58
2021/10/22 06:39:18;;;;;;;;;21.75;17.75;;;;;7.55;88.22;101798.47;4999199;28;45314;-58
2021/10/22 06:41:43;;;;;;;;;17.50;14.75;;;;;7.60;88.27;101800.19;4999618;28;45139;-58
2021/10/22 06:44:08;;;;;;;;;19.25;15.25;;;;;7.62;87.80;101819.19;4999880;28;45471;-58
2021/10/22 06:46:35;;;;;;;;;19.00;14.25;;;;;7.65;87.44;101810.56;4999321;28;46183;-58
2021/10/22 06:49:00;;;;;;;;;16.00;15.50;;;;;7.66;87.82;101816.59;4997310;28;45388;-58
2021/10/22 06:51:26;;;;;;;;;12.00;11.25;;;;;7.69;87.67;101822.66;5000003;28;45301;-58
2021/10/22 06:53:51;;;;;;;;;8.25;8.25;;;;;7.74;87.56;101820.06;4999664;28;45607;-58
2021/10/22 06:56:17;;;;;;;;;13.25;12.50;;;;;7.76;87.09;101828.69;4999720;28;46266;-58
2021/10/22 06:58:43;;;;;;;;;12.75;12.75;;;;;7.76;87.14;101826.94;4999819;28;45237;-58
2021/10/22 07:01:08;;;;;;;;;10.00;10.00;;;;;7.75;87.24;101837.31;4998987;28;45332;-58
2021/10/22 07:03:41;;;;;;;;;13.00;12.25;;;;;7.78;86.93;101833.00;4995690;28;45442;-58
2021/10/22 07:08:52;;;;;;;;;15.25;13.75;;;;;7.85;86.77;101834.75;4995508;28;45781;-59
2021/10/22 07:11:18;;;;;;;;;18.25;17.75;;;;;7.89;86.60;101836.47;4999771;28;45262;-59
2021/10/22 07:13:51;;;;;;;;;12.00;10.00;;;;;7.93;85.80;101830.44;4999555;28;45396;-58
2021/10/22 07:16:17;;;;;;;;;11.00;9.50;;;;;7.97;85.94;101839.06;4998803;28;47170;-59
2021/10/22 07:18:44;;;;;;;;;15.00;11.00;;;;;8.03;86.11;101836.50;4999191;28;45338;-58
2021/10/22 07:21:10;;;;;;;;;13.50;10.75;;;;;8.09;85.44;101833.03;4999533;28;45398;-58
2021/10/22 07:23:35;;;;;;;;;14.25;11.00;;;;;8.14;85.92;101834.75;4999020;28;45487;-58
2021/10/22 07:26:01;;;;;;;;;12.25;11.50;;;;;8.22;85.48;101843.41;4999313;28;46074;-64
2021/10/22 07:28:26;;;;;;;;;12.50;10.50;;;;;8.30;85.25;101838.22;4996198;28;45443;-60
2021/10/22 07:30:52;;;;;;;;;12.75;11.75;;;;;8.37;85.06;101839.94;4995984;28;45493;-59
2021/10/22 07:33:17;;;;;;;;;17.00;12.25;;;;;8.47;84.96;101840.81;4995709;28;45523;-59
2021/10/22 07:35:44;;;;;;;;;13.25;12.00;;;;;8.60;84.53;101847.69;4998499;28;46102;-57
2021/10/22 07:38:11;;;;;;;;;26.00;16.25;;;;;8.69;84.78;101845.09;4998965;28;45469;-59
2021/10/22 07:40:38;;;;;;;;;19.75;16.00;;;;;8.82;84.34;101844.22;4999085;28;45270;-59
2021/10/22 07:43:04;;;;;;;;;15.00;13.00;;;;;8.95;84.31;101846.75;4997900;28;45384;-58
2021/10/22 07:45:29;;;;;;;;;19.25;15.75;;;;;9.08;83.46;101851.06;4997659;28;45272;-58
2021/10/22 07:47:55;;;;;;;;;19.00;13.00;;;;;9.17;83.37;101851.00;4999310;28;45325;-58
2021/10/22 07:50:20;;;;;;;;;22.50;17.50;;;;;9.24;82.55;101860.50;4998946;28;45528;-58
2021/10/22 07:52:46;;;;;;;;;22.50;18.50;;;;;9.30;82.39;101844.91;4995310;28;45338;-57
2021/10/22 07:55:11;;;;;;;;;16.25;15.50;;;;;9.40;81.53;101856.09;4998833;28;46145;-57
2021/10/22 07:57:37;;;;;;;;;22.50;18.25;;;;;9.48;81.54;101861.25;4999058;28;45333;-56
2021/10/22 08:00:04;;;;;;;;;18.50;17.00;;;;;9.57;81.42;101856.88;4999155;28;45243;-57
2021/10/22 08:02:29;;;;;;;;;23.25;18.00;;;;;9.69;81.50;101869.78;4997584;28;45184;-57
2021/10/22 08:04:55;;;;;;;;;18.25;16.25;;;;;9.80;81.61;101863.66;4998399;28;46195;-55
2021/10/22 08:07:29;;;;;;;;;64.75;42.50;;;;;9.92;80.52;101882.63;4997647;28;45295;-56
2021/10/22 08:09:55;;;;;;;;;18.25;16.75;;;;;10.03;80.54;101872.19;4980884;28;45284;-56
2021/10/22 08:12:20;;;;;;;;;14.50;14.50;;;;;10.17;80.77;101882.44;4999241;28;45389;-56
2021/10/22 08:14:46;;;;;;;;;17.50;13.00;;;;;10.26;79.08;101880.69;4998483;28;46011;-57
2021/10/22 08:17:19;;;;;;;;;22.50;18.75;;;;;10.34;79.33;101880.63;4998589;28;45255;-56
2021/10/22 08:20:08;;;;;;;;;22.00;14.75;;;;;10.37;78.39;101888.38;4998586;28;45250;-57
2021/10/22 08:22:33;;;;;;;;;15.50;12.00;;;;;10.42;78.50;101883.16;4998180;28;45495;-57
2021/10/22 08:25:12;;;;;;;;;19.50;16.00;;;;;10.58;78.45;101911.59;4998632;28;45393;-57
2021/10/22 08:27:44;;;;;;;;;12.50;10.75;;;;;10.59;77.75;101909.84;4998301;28;45306;-59
2021/10/22 08:30:25;;;;;;;;;15.00;13.50;;;;;10.56;77.72;101902.06;4998669;28;45261;-57
2021/10/22 08:32:52;;;;;;;;;15.50;12.50;;;;;10.63;76.67;101911.56;4999184;28;45168;-56
2021/10/22 08:35:22;;;;;;;;;15.00;14.00;;;;;10.70;77.08;101917.56;4998139;28;47088;-58
2021/10/22 08:37:48;;;;;;;;;13.50;9.25;;;;;10.79;76.60;101914.88;4990398;28;45866;-58
2021/10/22 08:40:16;;;;;;;;;12.25;8.25;;;;;10.90;76.41;101915.63;4998403;28;45258;-57
2021/10/22 08:42:43;;;;;;;;;11.25;8.25;;;;;11.04;76.30;101918.97;4999166;28;45424;-57
2021/10/22 08:45:10;;;;;;;;;10.00;7.75;;;;;11.13;75.79;101923.19;4998258;28;46368;-57
2021/10/22 08:47:36;;;;;;;;;14.25;13.00;;;;;11.16;74.10;101920.56;4998501;28;45399;-56
2021/10/22 08:50:07;;;;;;;;;8.00;7.50;;;;;11.21;73.69;101924.84;4996934;28;45515;-56
2021/10/22 08:52:34;;;;;;;;;11.25;8.50;;;;;11.26;72.54;101920.44;4994136;28;45590;-56
2021/10/22 08:55:00;;;;;;;;;10.00;10.00;;;;;11.30;73.00;101918.66;4994991;28;45556;-56
2021/10/22 08:57:25;;;;;;;;;11.75;7.25;;;;;11.40;71.61;101927.22;4997088;28;45338;-56
2021/10/22 08:59:53;;;;;;;;;7.25;4.75;;;;;11.47;71.71;101924.53;4999095;28;45389;-56
2021/10/22 09:02:22;;;;;;;;;4.00;4.00;;;;;11.61;72.58;101923.50;4996246;28;45591;-59
2021/10/22 09:04:48;;;;;;;;;9.50;9.00;;;;;11.72;72.57;101932.91;4983467;28;48284;-59
2021/10/22 09:07:20;;;;;;;;;14.25;11.00;;;;;11.80;72.19;101928.47;5001736;28;45465;-60
2021/10/22 09:09:46;;;;;;;;;7.50;5.00;;;;;11.92;71.94;101937.88;5001805;28;45425;-60
2021/10/22 09:12:13;;;;;;;;;8.50;5.50;;;;;11.98;71.68;101940.38;5000316;28;45555;-59
2021/10/22 09:15:00;;;;;;;;;12.00;9.00;;;;;12.10;72.16;101940.22;5000804;28;45398;-59
2021/10/22 09:17:38;;;;;;;;;9.00;7.00;;;;;12.25;72.12;101944.34;5001413;28;45766;-59
2021/10/22 09:20:06;;;;;;;;;12.00;8.00;;;;;12.37;71.14;101938.94;4998205;28;45587;-59
2021/10/22 09:22:34;;;;;;;;;6.50;4.00;;;;;12.42;70.93;101944.94;4992632;28;45520;-59
2021/10/22 09:25:04;;;;;;;;;9.25;8.00;;;;;12.51;69.98;101949.16;4996220;28;47051;-59
2021/10/22 09:27:41;;;;;;;;;9.00;6.50;;;;;12.60;70.82;101953.34;5001402;28;45772;-59
2021/10/22 09:30:10;;;;;;;;;8.00;6.00;;;;;12.67;68.30;101954.97;5001277;28;45431;-59
2021/10/22 09:32:58;;;;;;;;;6.50;5.50;;;;;12.69;69.61;101950.59;5001269;28;45348;-58
2021/10/22 09:35:37;;;;;;;;;7.75;7.75;;;;;12.81;69.32;101958.19;5000682;28;45322;-59
2021/10/22 09:38:26;;;;;;;;;9.50;6.25;;;;;12.98;69.85;101960.50;5001035;28;45688;-58
2021/10/22 09:41:04;;;;;;;;;11.00;5.75;;;;;13.43;69.59;101952.75;4990669;28;45330;-59
2021/10/22 09:43:35;;;;;;;;;9.50;5.00;;;;;14.46;66.76;101957.47;4998923;28;45455;-58
2021/10/22 09:46:08;;;;;;;;;8.25;6.75;;;;;14.91;65.77;101964.16;4982409;28;48135;-57
2021/10/22 09:48:35;;;;;;;;;8.00;7.00;;;;;14.82;64.45;101959.19;4999208;28;45939;-57
2021/10/22 09:51:21;;;;;;;;;10.50;8.75;;;;;14.74;63.37;101960.25;5000553;28;45461;-56
2021/10/22 09:53:47;;;;;;;;;12.25;7.50;;;;;14.61;62.63;101959.69;4988260;28;45355;-57
2021/10/22 09:56:24;;;;;;;;;14.00;10.25;;;;;14.50;63.12;101965.22;4998368;28;46380;-57
2021/10/22 09:58:55;;;;;;;;;16.50;13.00;;;;;14.59;64.91;101962.34;4998723;28;47334;-58
2021/10/22 10:01:31;;;;;;;;;8.75;5.75;;;;;14.91;62.75;101964.16;4997162;28;45462;-59
2021/10/22 10:04:01;;;;;;;;;11.50;8.50;;;;;15.03;63.31;101962.16;5000289;28;45439;-60
2021/10/22 10:06:28;;;;;;;;;20.00;17.75;;;;;15.08;62.72;101970.72;5000158;28;46568;-59
2021/10/22 10:08:54;;;;;;;;;8.75;8.25;;;;;15.37;63.70;101972.56;4991245;28;45768;-59
2021/10/22 10:11:21;;;;;;;;;12.50;9.00;;;;;16.54;62.94;101966.41;4998795;28;45426;-59
2021/10/22 10:13:48;;;;;;;;;12.50;8.50;;;;;16.92;61.20;101972.19;5000986;28;45460;-60
2021/10/22 10:16:14;;;;;;;;;14.25;9.00;;;;;16.70;60.47;101978.16;4999999;28;46448;-60
2021/10/22 10:18:44;;;;;;;;;17.00;15.00;;;;;16.55;59.80;101969.88;4999563;28;45479;-59
2021/10/22 10:21:13;;;;;;;;;11.00;11.00;;;;;16.71;58.89;101979.88;4983715;28;45391;-59
2021/10/22 10:23:44;;;;;;;;;11.00;8.75;;;;;16.87;56.73;101977.59;4999456;28;45189;-59
2021/10/22 10:26:29;;;;;;;;;13.00;12.50;;;;;16.84;57.63;101974.22;4999229;28;46193;-63
2021/10/22 10:28:57;;;;;;;;;7.00;7.00;;;;;16.99;58.09;101973.69;4998938;28;45318;-60
2021/10/22 10:31:34;;;;;;;;;10.00;8.00;;;;;18.77;55.58;101977.41;4998576;28;45347;-60
2021/10/22 10:34:02;;;;;;;;;11.50;7.50;;;;;19.09;52.84;101978.69;4997994;28;45607;-60
2021/10/22 10:36:50;;;;;;;;;8.50;7.00;;;;;19.05;54.12;101978.91;4999735;28;46263;-60
2021/10/22 10:39:48;;;;;;;;;15.00;10.00;;;;;20.62;51.88;101982.16;4988620;28;45690;-60
2021/10/22 10:42:32;;;;;;;;;11.00;9.00;;;;;20.96;51.30;101981.34;4913763;28;45646;-60
2021/10/22 10:45:03;;;;;;;;;9.75;7.25;;;;;20.14;50.15;101975.69;4999120;28;45390;-60
2021/10/22 10:47:30;;;;;;;;;8.00;6.50;;;;;20.72;45.51;101983.44;4999858;28;47221;-60
2021/10/22 10:49:55;;;;;;;;;7.00;6.00;;;;;20.74;46.29;101984.22;4999899;28;45845;-60
2021/10/22 10:52:42;;;;;;;;;9.25;6.50;;;;;19.63;46.05;101979.84;5000105;28;45237;-60
2021/10/22 10:55:30;;;;;;;;;5.75;5.75;;;;;18.82;48.38;101969.31;4999922;28;45706;-59
2021/10/22 10:58:07;;;;;;;;;6.50;5.00;;;;;19.71;53.05;101980.34;4999917;28;45483;-60
2021/10/22 11:00:39;;;;;;;;;9.50;5.00;;;;;21.79;48.98;101976.03;4997080;28;45163;-60
2021/10/22 11:03:07;;;;;;;;;5.00;3.25;;;;;21.92;43.42;101973.59;4997899;28;45263;-60
2021/10/22 11:05:42;;;;;;;;;15.75;12.25;;;;;22.17;40.66;101968.66;4999579;28;45476;-60
2021/10/22 11:08:15;;;;;;;;;9.00;5.50;;;;;22.36;41.93;101964.97;4999358;28;46416;-60
2021/10/22 11:11:14;;;;;;;;;12.50;6.75;;;;;20.98;42.09;101968.88;4999994;28;45561;-61
2021/10/22 11:13:59;;;;;;;;;9.50;7.50;;;;;19.54;44.31;101974.13;4990815;28;45351;-59
2021/10/22 11:16:44;;;;;;;;;7.50;6.50;;;;;19.20;47.10;101969.44;4997990;28;45254;-59
2021/10/22 11:19:25;;;;;;;;;3.00;2.00;;;;;19.70;45.74;101980.41;4999267;28;45322;-59
2021/10/22 11:21:52;;;;;;;;;12.00;4.00;;;;;20.05;46.02;101978.78;4999158;28;45227;-60
2021/10/22 11:24:25;;;;;;;;;8.50;5.00;;;;;21.22;42.53;101970.28;4999495;28;45380;-60
2021/10/22 11:27:09;;;;;;;;;7.75;3.50;;;;;20.62;44.43;101971.59;4999708;28;45412;-60